createdAt,value
2023-03-23T16:00:15.479Z,100203.66
2023-03-23T16:02:44.990Z,100206.08
2023-03-23T16:05:13.391Z,100202.57
2023-03-23T16:07:42.215Z,100206.05
2023-03-23T16:10:23.552Z,100209.03
2023-03-23T16:12:52.746Z,100208.15
2023-03-23T16:15:21.432Z,100210.89
2023-03-23T16:17:49.838Z,100207.02
2023-03-23T16:20:19.701Z,100208.16
2023-03-23T16:22:48.421Z,100204.84
2023-03-23T16:25:18.907Z,100205.31
2023-03-23T16:27:52.665Z,100213.36
2023-03-23T16:30:25.165Z,100213.29
2023-03-23T16:32:55.564Z,100214.43
2023-03-23T16:35:26.107Z,100219.94
2023-03-23T16:38:06.949Z,100223.03
2023-03-23T16:40:37.939Z,100224.34
2023-03-23T16:43:08.581Z,100226.63
2023-03-23T16:45:37.617Z,100226.45
2023-03-23T16:48:06.382Z,100230.23
2023-03-23T16:50:37.747Z,100229.71
2023-03-23T16:53:07.867Z,100232.84
2023-03-23T16:55:36.724Z,100234.05
2023-03-23T16:58:16.406Z,100234.94
2023-03-23T17:00:48.471Z,100232.55
2023-03-23T17:03:17.356Z,100235.52
2023-03-23T17:05:46.668Z,100233.44
2023-03-23T17:08:15.230Z,100237.27
2023-03-23T17:10:44.064Z,100235.23
2023-03-23T17:13:12.369Z,100237.02
2023-03-23T17:15:41.209Z,100238.69
2023-03-23T17:18:09.949Z,100235.17
2023-03-23T17:20:38.293Z,100241.69
2023-03-23T17:23:06.676Z,100246.98
2023-03-23T17:25:36.519Z,100246.11
2023-03-23T17:28:06.995Z,100245.14
2023-03-23T17:30:44.063Z,100248.28
2023-03-23T17:33:12.332Z,100247.59
2023-03-23T17:35:40.957Z,100249.36
2023-03-23T17:38:10.137Z,100254.46
2023-03-23T17:40:38.916Z,100252.48
2023-03-23T17:43:07.607Z,100257.25
2023-03-23T17:45:36.694Z,100258.25
2023-03-23T17:48:08.082Z,100252.80
2023-03-23T17:50:36.912Z,100254.63
2023-03-23T17:53:05.140Z,100254.05
2023-03-23T17:55:33.317Z,100258.45
2023-03-23T17:58:02.246Z,100256.56
2023-03-23T18:00:30.516Z,100256.80
2023-03-23T18:02:59.024Z,100258.73
2023-03-23T18:05:28.123Z,100262.41
2023-03-23T18:07:56.321Z,100259.13
2023-03-23T18:10:24.651Z,100261.73
2023-03-23T18:12:52.811Z,100261.02
2023-03-23T18:15:21.010Z,100265.01
2023-03-23T18:17:51.287Z,100266.00
2023-03-23T18:20:19.657Z,100266.50
2023-03-23T18:22:48.464Z,100267.16
2023-03-23T18:25:17.178Z,100266.92
2023-03-23T18:27:45.577Z,100265.68
2023-03-23T18:30:13.661Z,100269.95
2023-03-23T18:32:42.851Z,100271.66
2023-03-23T18:35:11.122Z,100268.52
2023-03-23T18:37:39.805Z,100271.30
2023-03-23T18:40:11.155Z,100274.95
2023-03-23T18:42:39.661Z,100274.45
2023-03-23T18:45:08.425Z,100274.48
2023-03-23T18:47:38.758Z,100271.55
2023-03-23T18:50:07.519Z,100271.05
2023-03-23T18:52:37.905Z,100266.02
2023-03-23T18:55:06.183Z,100270.52
2023-03-23T18:57:39.047Z,100268.40
2023-03-23T19:00:08.419Z,100272.04
2023-03-23T19:02:39.643Z,100272.38
2023-03-23T19:05:09.304Z,100272.70
2023-03-23T19:07:38.668Z,100274.08
2023-03-23T19:10:06.966Z,100274.77
2023-03-23T19:12:41.813Z,100273.20
2023-03-23T19:15:11.036Z,100273.02
2023-03-23T19:17:39.194Z,100271.25
2023-03-23T19:20:14.655Z,100271.76
2023-03-23T19:22:45.802Z,100270.02
2023-03-23T19:25:14.336Z,100266.19
2023-03-23T19:28:18.143Z,100264.79
2023-03-23T19:30:31.809Z,100263.77
2023-03-23T19:33:01.075Z,100264.63
2023-03-23T19:35:30.009Z,100263.58
2023-03-23T19:37:58.273Z,100260.59
2023-03-23T19:40:39.153Z,100262.32
2023-03-23T19:43:08.629Z,100258.15
2023-03-23T19:45:38.466Z,100259.54
2023-03-23T19:48:07.963Z,100258.85
2023-03-23T19:50:38.772Z,100262.66
2023-03-23T19:53:07.494Z,100264.23
2023-03-23T19:55:37.799Z,100264.20
2023-03-23T19:58:06.143Z,100265.27
2023-03-23T20:00:35.856Z,100263.55
2023-03-23T20:03:05.493Z,100266.34
2023-03-23T20:05:35.149Z,100260.27
2023-03-23T20:08:04.841Z,100260.48
2023-03-23T20:10:35.577Z,100258.06
2023-03-23T20:13:13.578Z,100256.50
2023-03-23T20:15:41.825Z,100257.20
2023-03-23T20:18:14.707Z,100253.56
2023-03-23T20:20:43.085Z,100254.63
2023-03-23T20:23:11.440Z,100257.42
2023-03-23T20:25:39.875Z,100258.71
2023-03-23T20:28:08.621Z,100257.91
2023-03-23T20:30:37.099Z,100259.52
2023-03-23T20:33:05.544Z,100258.55
2023-03-23T20:35:34.524Z,100256.04
2023-03-23T20:38:02.842Z,100255.98
2023-03-23T20:40:32.505Z,100252.45
2023-03-23T20:43:01.601Z,100253.27
2023-03-23T20:45:35.530Z,100249.64
2023-03-23T20:48:05.345Z,100246.69
2023-03-23T20:50:34.226Z,100241.46
2023-03-23T20:53:04.765Z,100248.54
2023-03-23T20:55:33.358Z,100246.03
2023-03-23T20:58:05.335Z,100246.64
2023-03-23T21:00:35.292Z,100246.55
2023-03-23T21:03:03.591Z,100246.63
2023-03-23T21:05:33.364Z,100242.87
2023-03-23T21:08:02.445Z,100241.38
2023-03-23T21:10:30.798Z,100243.17
2023-03-23T21:12:58.903Z,100243.73
2023-03-23T21:15:27.424Z,100244.70
2023-03-23T21:17:56.059Z,100243.73
2023-03-23T21:20:24.830Z,100243.48
2023-03-23T21:22:53.578Z,100247.78
2023-03-23T21:25:22.302Z,100247.39
2023-03-23T21:28:02.926Z,100247.48
2023-03-23T21:30:31.930Z,100245.98
2023-03-23T21:33:00.216Z,100242.06
2023-03-23T21:35:28.429Z,100241.06
2023-03-23T21:37:58.253Z,100239.09
2023-03-23T21:40:27.225Z,100237.45
2023-03-23T21:42:56.154Z,100241.17
2023-03-23T21:45:25.744Z,100235.55
2023-03-23T21:47:57.349Z,100237.00
2023-03-23T21:50:25.777Z,100231.63
2023-03-23T21:52:56.927Z,100232.56
2023-03-23T21:55:25.547Z,100236.05
2023-03-23T21:57:53.764Z,100234.86
2023-03-23T22:00:23.286Z,100243.95
2023-03-23T22:02:53.318Z,100245.96
2023-03-23T22:05:21.890Z,100244.96
2023-03-23T22:07:50.754Z,100243.27
2023-03-23T22:10:19.719Z,100245.27
2023-03-23T22:12:50.026Z,100241.36
2023-03-23T22:15:18.278Z,100245.11
2023-03-23T22:17:47.572Z,100247.23
2023-03-23T22:20:15.860Z,100248.13
2023-03-23T22:22:46.320Z,100244.00
2023-03-23T22:25:14.759Z,100244.20
2023-03-23T22:27:43.279Z,100240.23
2023-03-23T22:30:12.330Z,100241.40
2023-03-23T22:32:41.193Z,100238.27
2023-03-23T22:35:12.694Z,100233.58
2023-03-23T22:37:41.767Z,100234.24
2023-03-23T22:40:11.661Z,100234.07
2023-03-23T22:42:42.827Z,100233.02
2023-03-23T22:45:11.215Z,100232.31
2023-03-23T22:47:39.696Z,100232.80
2023-03-23T22:50:08.818Z,100237.98
2023-03-23T22:52:37.151Z,100233.93
2023-03-23T22:55:08.500Z,100238.38
2023-03-23T22:57:37.714Z,100236.80
2023-03-23T23:00:14.355Z,100235.42
2023-03-23T23:02:43.098Z,100235.92
2023-03-23T23:05:12.014Z,100235.91
2023-03-23T23:07:40.427Z,100237.30
2023-03-23T23:10:09.929Z,100237.30
2023-03-23T23:12:42.702Z,100237.80
2023-03-23T23:15:20.452Z,100236.05
2023-03-23T23:17:48.762Z,100237.41
2023-03-23T23:20:18.918Z,100239.82
2023-03-23T23:22:48.989Z,100235.98
2023-03-23T23:25:17.412Z,100236.82
2023-03-23T23:27:46.107Z,100233.49
2023-03-23T23:30:14.326Z,100232.91
2023-03-23T23:32:52.428Z,100231.27
2023-03-23T23:35:26.034Z,100230.16
2023-03-23T23:37:54.546Z,100228.34
2023-03-23T23:40:23.085Z,100223.08
2023-03-23T23:42:53.564Z,100220.82
2023-03-23T23:45:21.917Z,100222.23
2023-03-23T23:47:50.567Z,100221.56
2023-03-23T23:50:19.111Z,100222.95
2023-03-23T23:52:47.401Z,100224.23
2023-03-23T23:55:18.728Z,100216.56
2023-03-23T23:57:48.142Z,100214.80
